sensor_id;sensor_type;location;lat;lon;timestamp;temperature;humidity
52016;DHT22;38032;53.326;6.472;2023-10-13T00:01:21;14.30;99.90
52016;DHT22;38032;53.326;6.472;2023-10-13T00:03:47;14.40;99.90
52016;DHT22;38032;53.326;6.472;2023-10-13T00:06:13;14.40;99.90
52016;DHT22;38032;53.326;6.472;2023-10-13T00:08:39;14.40;99.90
52016;DHT22;38032;53.326;6.472;2023-10-13T00:11:06;14.40;99.90
52016;DHT22;38032;53.326;6.472;2023-10-13T00:13:32;14.50;99.90
52016;DHT22;38032;53.326;6.472;2023-10-13T00:16:09;14.40;99.90
52016;DHT22;38032;53.326;6.472;2023-10-13T00:18:36;14.50;99.90
52016;DHT22;38032;53.326;6.472;2023-10-13T00:21:09;14.50;99.90
52016;DHT22;38032;53.326;6.472;2023-10-13T00:23:46;14.50;99.90
52016;DHT22;38032;53.326;6.472;2023-10-13T00:26:19;14.50;99.90
52016;DHT22;38032;53.326;6.472;2023-10-13T00:28:50;14.50;99.90
52016;DHT22;38032;53.326;6.472;2023-10-13T00:31:25;14.60;99.90
52016;DHT22;38032;53.326;6.472;2023-10-13T00:33:58;14.60;99.90
52016;DHT22;38032;53.326;6.472;2023-10-13T00:36:45;14.60;99.90
52016;DHT22;38032;53.326;6.472;2023-10-13T00:39:15;14.60;99.90
52016;DHT22;38032;53.326;6.472;2023-10-13T00:41:42;14.60;99.90
52016;DHT22;38032;53.326;6.472;2023-10-13T00:44:19;14.60;99.90
52016;DHT22;38032;53.326;6.472;2023-10-13T00:47:07;14.60;99.90
52016;DHT22;38032;53.326;6.472;2023-10-13T00:49:37;14.70;99.90
52016;DHT22;38032;53.326;6.472;2023-10-13T00:52:06;14.70;99.90
52016;DHT22;38032;53.326;6.472;2023-10-13T00:54:37;14.70;99.90
52016;DHT22;38032;53.326;6.472;2023-10-13T00:57:04;14.80;99.90
52016;DHT22;38032;53.326;6.472;2023-10-13T00:59:33;14.80;99.90
52016;DHT22;38032;53.326;6.472;2023-10-13T01:02:00;14.80;99.90
52016;DHT22;38032;53.326;6.472;2023-10-13T01:04:46;14.80;99.90
52016;DHT22;38032;53.326;6.472;2023-10-13T01:07:12;14.90;99.90
52016;DHT22;38032;53.326;6.472;2023-10-13T01:09:42;14.90;99.90
52016;DHT22;38032;53.326;6.472;2023-10-13T01:12:08;14.90;99.90
52016;DHT22;38032;53.326;6.472;2023-10-13T01:14:34;15.00;99.90
52016;DHT22;38032;53.326;6.472;2023-10-13T01:17:02;15.00;99.90
52016;DHT22;38032;53.326;6.472;2023-10-13T01:19:30;15.00;99.90
52016;DHT22;38032;53.326;6.472;2023-10-13T01:22:04;15.00;99.90
52016;DHT22;38032;53.326;6.472;2023-10-13T01:24:32;15.10;99.90
52016;DHT22;38032;53.326;6.472;2023-10-13T01:27:01;15.10;99.90
52016;DHT22;38032;53.326;6.472;2023-10-13T01:29:44;15.20;99.90
52016;DHT22;38032;53.326;6.472;2023-10-13T01:32:18;15.20;99.90
52016;DHT22;38032;53.326;6.472;2023-10-13T01:34:44;15.20;99.90
52016;DHT22;38032;53.326;6.472;2023-10-13T01:37:12;15.30;99.90
52016;DHT22;38032;53.326;6.472;2023-10-13T01:39:38;15.30;99.90
52016;DHT22;38032;53.326;6.472;2023-10-13T01:42:04;15.40;99.90
52016;DHT22;38032;53.326;6.472;2023-10-13T01:44:31;15.40;99.90
52016;DHT22;38032;53.326;6.472;2023-10-13T01:46:59;15.40;99.90
52016;DHT22;38032;53.326;6.472;2023-10-13T01:49:26;15.40;99.90
52016;DHT22;38032;53.326;6.472;2023-10-13T01:51:52;15.40;99.90
52016;DHT22;38032;53.326;6.472;2023-10-13T01:54:18;15.50;99.90
52016;DHT22;38032;53.326;6.472;2023-10-13T01:56:46;15.50;99.90
52016;DHT22;38032;53.326;6.472;2023-10-13T01:59:14;15.50;99.90
52016;DHT22;38032;53.326;6.472;2023-10-13T02:01:41;15.60;99.90
52016;DHT22;38032;53.326;6.472;2023-10-13T02:04:07;15.60;99.90
52016;DHT22;38032;53.326;6.472;2023-10-13T02:06:36;15.60;99.90
52016;DHT22;38032;53.326;6.472;2023-10-13T02:09:05;15.60;99.90
52016;DHT22;38032;53.326;6.472;2023-10-13T02:11:38;15.70;99.90
52016;DHT22;38032;53.326;6.472;2023-10-13T02:14:04;15.70;99.90
52016;DHT22;38032;53.326;6.472;2023-10-13T02:16:30;15.70;99.90
52016;DHT22;38032;53.326;6.472;2023-10-13T02:18:57;15.70;99.90
52016;DHT22;38032;53.326;6.472;2023-10-13T02:21:31;15.70;99.90
52016;DHT22;38032;53.326;6.472;2023-10-13T02:23:58;15.70;99.90
52016;DHT22;38032;53.326;6.472;2023-10-13T02:26:26;15.80;99.90
52016;DHT22;38032;53.326;6.472;2023-10-13T02:29:01;15.80;99.90
52016;DHT22;38032;53.326;6.472;2023-10-13T02:31:35;15.80;99.90
52016;DHT22;38032;53.326;6.472;2023-10-13T02:34:01;15.80;99.90
52016;DHT22;38032;53.326;6.472;2023-10-13T02:36:32;15.80;99.90
52016;DHT22;38032;53.326;6.472;2023-10-13T02:39:19;15.90;99.90
52016;DHT22;38032;53.326;6.472;2023-10-13T02:41:50;15.90;99.90
52016;DHT22;38032;53.326;6.472;2023-10-13T02:44:16;15.90;99.90
52016;DHT22;38032;53.326;6.472;2023-10-13T02:46:54;15.90;99.90
52016;DHT22;38032;53.326;6.472;2023-10-13T02:49:24;15.90;99.90
52016;DHT22;38032;53.326;6.472;2023-10-13T02:51:53;16.00;99.90
52016;DHT22;38032;53.326;6.472;2023-10-13T02:54:21;16.00;99.90
52016;DHT22;38032;53.326;6.472;2023-10-13T02:56:47;16.00;99.90
52016;DHT22;38032;53.326;6.472;2023-10-13T02:59:23;16.00;99.90
52016;DHT22;38032;53.326;6.472;2023-10-13T03:02:01;16.00;99.90
52016;DHT22;38032;53.326;6.472;2023-10-13T03:04:32;16.00;99.90
52016;DHT22;38032;53.326;6.472;2023-10-13T03:06:59;16.00;99.90
52016;DHT22;38032;53.326;6.472;2023-10-13T03:09:25;16.00;99.90
52016;DHT22;38032;53.326;6.472;2023-10-13T03:11:51;16.00;99.90
52016;DHT22;38032;53.326;6.472;2023-10-13T03:14:18;16.10;99.90
52016;DHT22;38032;53.326;6.472;2023-10-13T03:16:58;16.10;99.90
52016;DHT22;38032;53.326;6.472;2023-10-13T03:19:28;16.10;99.90
52016;DHT22;38032;53.326;6.472;2023-10-13T03:22:00;16.10;99.90
52016;DHT22;38032;53.326;6.472;2023-10-13T03:24:37;16.10;99.90
52016;DHT22;38032;53.326;6.472;2023-10-13T03:27:10;16.10;99.90
52016;DHT22;38032;53.326;6.472;2023-10-13T03:29:38;16.10;99.90
52016;DHT22;38032;53.326;6.472;2023-10-13T03:32:12;16.10;99.90
52016;DHT22;38032;53.326;6.472;2023-10-13T03:34:39;16.20;99.90
52016;DHT22;38032;53.326;6.472;2023-10-13T03:37:18;16.20;99.90
52016;DHT22;38032;53.326;6.472;2023-10-13T03:40:10;16.20;99.90
52016;DHT22;38032;53.326;6.472;2023-10-13T03:42:50;16.20;99.90
52016;DHT22;38032;53.326;6.472;2023-10-13T03:45:39;16.20;99.90
52016;DHT22;38032;53.326;6.472;2023-10-13T03:48:06;16.20;99.90
52016;DHT22;38032;53.326;6.472;2023-10-13T03:50:52;16.20;99.90
52016;DHT22;38032;53.326;6.472;2023-10-13T03:53:38;16.20;99.90
52016;DHT22;38032;53.326;6.472;2023-10-13T03:56:25;16.20;99.90
52016;DHT22;38032;53.326;6.472;2023-10-13T03:58:53;16.30;99.90
52016;DHT22;38032;53.326;6.472;2023-10-13T04:01:20;16.30;99.90
52016;DHT22;38032;53.326;6.472;2023-10-13T04:03:58;16.30;99.90
52016;DHT22;38032;53.326;6.472;2023-10-13T04:06:38;16.30;99.90
52016;DHT22;38032;53.326;6.472;2023-10-13T04:09:20;16.30;99.90
52016;DHT22;38032;53.326;6.472;2023-10-13T04:11:56;16.30;99.90
52016;DHT22;38032;53.326;6.472;2023-10-13T04:14:30;16.30;99.90
52016;DHT22;38032;53.326;6.472;2023-10-13T04:17:15;16.30;99.90
52016;DHT22;38032;53.326;6.472;2023-10-13T04:19:42;16.30;99.90
52016;DHT22;38032;53.326;6.472;2023-10-13T04:22:27;16.30;99.90
52016;DHT22;38032;53.326;6.472;2023-10-13T04:25:23;16.30;99.90
52016;DHT22;38032;53.326;6.472;2023-10-13T04:28:17;16.30;99.90
52016;DHT22;38032;53.326;6.472;2023-10-13T04:31:00;16.30;99.90
52016;DHT22;38032;53.326;6.472;2023-10-13T04:33:37;16.30;99.90
52016;DHT22;38032;53.326;6.472;2023-10-13T04:36:24;16.30;99.90
52016;DHT22;38032;53.326;6.472;2023-10-13T04:38:53;16.30;99.90
52016;DHT22;38032;53.326;6.472;2023-10-13T04:41:28;16.30;99.90
52016;DHT22;38032;53.326;6.472;2023-10-13T04:44:09;16.30;99.90
52016;DHT22;38032;53.326;6.472;2023-10-13T04:46:54;16.40;99.90
52016;DHT22;38032;53.326;6.472;2023-10-13T04:49:36;16.40;99.90
52016;DHT22;38032;53.326;6.472;2023-10-13T04:52:18;16.40;99.90
52016;DHT22;38032;53.326;6.472;2023-10-13T04:55:11;16.40;99.90
52016;DHT22;38032;53.326;6.472;2023-10-13T04:57:57;16.40;99.90
52016;DHT22;38032;53.326;6.472;2023-10-13T05:01:02;16.40;99.90
52016;DHT22;38032;53.326;6.472;2023-10-13T05:03:47;16.40;99.90
52016;DHT22;38032;53.326;6.472;2023-10-13T05:06:31;16.40;99.90
52016;DHT22;38032;53.326;6.472;2023-10-13T05:09:07;16.40;99.90
52016;DHT22;38032;53.326;6.472;2023-10-13T05:11:52;16.40;99.90
52016;DHT22;38032;53.326;6.472;2023-10-13T05:14:37;16.40;99.90
52016;DHT22;38032;53.326;6.472;2023-10-13T05:17:22;16.40;99.90
52016;DHT22;38032;53.326;6.472;2023-10-13T05:20:07;16.40;99.90
52016;DHT22;38032;53.326;6.472;2023-10-13T05:22:51;16.40;99.90
52016;DHT22;38032;53.326;6.472;2023-10-13T05:25:36;16.40;99.90
52016;DHT22;38032;53.326;6.472;2023-10-13T05:28:21;16.40;99.90
52016;DHT22;38032;53.326;6.472;2023-10-13T05:31:06;16.40;99.90
52016;DHT22;38032;53.326;6.472;2023-10-13T05:33:51;16.30;99.90
52016;DHT22;38032;53.326;6.472;2023-10-13T05:36:35;16.30;99.90
52016;DHT22;38032;53.326;6.472;2023-10-13T05:39:20;16.30;99.90
52016;DHT22;38032;53.326;6.472;2023-10-13T05:42:04;16.30;99.90
52016;DHT22;38032;53.326;6.472;2023-10-13T05:44:49;16.30;99.90
52016;DHT22;38032;53.326;6.472;2023-10-13T05:47:42;16.30;99.90
52016;DHT22;38032;53.326;6.472;2023-10-13T05:50:10;16.20;99.90
52016;DHT22;38032;53.326;6.472;2023-10-13T05:52:46;16.20;99.90
52016;DHT22;38032;53.326;6.472;2023-10-13T05:55:24;16.20;99.90
52016;DHT22;38032;53.326;6.472;2023-10-13T05:58:08;16.20;99.90
52016;DHT22;38032;53.326;6.472;2023-10-13T06:00:53;16.20;99.90
52016;DHT22;38032;53.326;6.472;2023-10-13T06:03:38;16.20;99.90
52016;DHT22;38032;53.326;6.472;2023-10-13T06:06:22;16.20;99.90
52016;DHT22;38032;53.326;6.472;2023-10-13T06:09:06;16.20;99.90
52016;DHT22;38032;53.326;6.472;2023-10-13T06:11:50;16.20;99.90
52016;DHT22;38032;53.326;6.472;2023-10-13T06:14:35;16.20;99.90
52016;DHT22;38032;53.326;6.472;2023-10-13T06:17:19;16.10;99.90
52016;DHT22;38032;53.326;6.472;2023-10-13T06:20:04;16.10;99.90
52016;DHT22;38032;53.326;6.472;2023-10-13T06:22:48;16.10;99.90
52016;DHT22;38032;53.326;6.472;2023-10-13T06:25:33;16.10;99.90
52016;DHT22;38032;53.326;6.472;2023-10-13T06:28:18;16.10;99.90
52016;DHT22;38032;53.326;6.472;2023-10-13T06:31:04;16.10;99.90
52016;DHT22;38032;53.326;6.472;2023-10-13T06:33:47;16.10;99.90
52016;DHT22;38032;53.326;6.472;2023-10-13T06:36:13;16.10;99.90
52016;DHT22;38032;53.326;6.472;2023-10-13T06:38:39;16.10;99.90
52016;DHT22;38032;53.326;6.472;2023-10-13T06:41:06;16.10;99.90
52016;DHT22;38032;53.326;6.472;2023-10-13T06:43:35;16.10;99.90
52016;DHT22;38032;53.326;6.472;2023-10-13T06:46:09;16.10;99.90
52016;DHT22;38032;53.326;6.472;2023-10-13T06:48:46;16.10;99.90
52016;DHT22;38032;53.326;6.472;2023-10-13T06:51:12;16.10;99.90
52016;DHT22;38032;53.326;6.472;2023-10-13T06:53:45;16.10;99.90
52016;DHT22;38032;53.326;6.472;2023-10-13T06:56:15;16.10;99.90
52016;DHT22;38032;53.326;6.472;2023-10-13T06:58:49;16.10;99.90
52016;DHT22;38032;53.326;6.472;2023-10-13T07:01:15;16.10;99.90
52016;DHT22;38032;53.326;6.472;2023-10-13T07:03:47;16.10;99.90
52016;DHT22;38032;53.326;6.472;2023-10-13T07:06:20;16.20;99.90
52016;DHT22;38032;53.326;6.472;2023-10-13T07:08:47;16.20;99.90
52016;DHT22;38032;53.326;6.472;2023-10-13T07:11:24;16.20;99.90
52016;DHT22;38032;53.326;6.472;2023-10-13T07:14:01;16.20;99.90
52016;DHT22;38032;53.326;6.472;2023-10-13T07:16:42;16.20;99.90
52016;DHT22;38032;53.326;6.472;2023-10-13T07:19:13;16.30;99.90
52016;DHT22;38032;53.326;6.472;2023-10-13T07:21:44;16.30;99.90
52016;DHT22;38032;53.326;6.472;2023-10-13T07:24:13;16.30;99.90
52016;DHT22;38032;53.326;6.472;2023-10-13T07:26:39;16.30;99.90
52016;DHT22;38032;53.326;6.472;2023-10-13T07:29:13;16.40;99.90
52016;DHT22;38032;53.326;6.472;2023-10-13T07:31:40;16.30;99.90
52016;DHT22;38032;53.326;6.472;2023-10-13T07:34:10;16.40;99.90
52016;DHT22;38032;53.326;6.472;2023-10-13T07:36:53;16.40;99.90
52016;DHT22;38032;53.326;6.472;2023-10-13T07:39:24;16.40;99.90
52016;DHT22;38032;53.326;6.472;2023-10-13T07:41:51;16.40;99.90
52016;DHT22;38032;53.326;6.472;2023-10-13T07:44:21;16.40;99.90
52016;DHT22;38032;53.326;6.472;2023-10-13T07:46:52;16.40;99.90
52016;DHT22;38032;53.326;6.472;2023-10-13T07:49:28;16.40;99.90
52016;DHT22;38032;53.326;6.472;2023-10-13T07:51:59;16.40;99.90
52016;DHT22;38032;53.326;6.472;2023-10-13T07:54:27;16.40;99.90
52016;DHT22;38032;53.326;6.472;2023-10-13T07:56:52;16.40;99.90
52016;DHT22;38032;53.326;6.472;2023-10-13T07:59:21;16.40;99.90
52016;DHT22;38032;53.326;6.472;2023-10-13T08:01:49;16.50;99.90
52016;DHT22;38032;53.326;6.472;2023-10-13T08:04:35;16.40;99.90
52016;DHT22;38032;53.326;6.472;2023-10-13T08:07:02;16.40;99.90
52016;DHT22;38032;53.326;6.472;2023-10-13T08:09:40;16.50;99.90
52016;DHT22;38032;53.326;6.472;2023-10-13T08:12:07;16.40;99.90
52016;DHT22;38032;53.326;6.472;2023-10-13T08:14:37;16.40;99.90
52016;DHT22;38032;53.326;6.472;2023-10-13T08:17:05;16.40;99.90
52016;DHT22;38032;53.326;6.472;2023-10-13T08:19:36;16.40;99.90
52016;DHT22;38032;53.326;6.472;2023-10-13T08:22:12;16.40;99.90
52016;DHT22;38032;53.326;6.472;2023-10-13T08:24:44;16.50;99.90
52016;DHT22;38032;53.326;6.472;2023-10-13T08:27:11;16.50;99.90
52016;DHT22;38032;53.326;6.472;2023-10-13T08:29:42;16.50;99.90
52016;DHT22;38032;53.326;6.472;2023-10-13T08:32:22;16.50;99.90
52016;DHT22;38032;53.326;6.472;2023-10-13T08:34:54;16.50;99.90
52016;DHT22;38032;53.326;6.472;2023-10-13T08:37:21;16.50;99.90
52016;DHT22;38032;53.326;6.472;2023-10-13T08:39:49;16.60;99.90
52016;DHT22;38032;53.326;6.472;2023-10-13T08:42:37;16.60;99.90
52016;DHT22;38032;53.326;6.472;2023-10-13T08:47:56;16.60;99.90
52016;DHT22;38032;53.326;6.472;2023-10-13T08:55:55;16.70;99.90
52016;DHT22;38032;53.326;6.472;2023-10-13T08:58:48;16.70;99.90
52016;DHT22;38032;53.326;6.472;2023-10-13T09:01:27;16.70;99.90
52016;DHT22;38032;53.326;6.472;2023-10-13T09:04:13;16.70;99.90
52016;DHT22;38032;53.326;6.472;2023-10-13T09:06:54;16.80;99.90
52016;DHT22;38032;53.326;6.472;2023-10-13T09:09:27;16.80;99.90
52016;DHT22;38032;53.326;6.472;2023-10-13T09:12:10;16.90;99.90
52016;DHT22;38032;53.326;6.472;2023-10-13T09:14:37;16.90;99.90
52016;DHT22;38032;53.326;6.472;2023-10-13T09:17:06;16.90;99.90
52016;DHT22;38032;53.326;6.472;2023-10-13T09:19:52;17.00;99.90
52016;DHT22;38032;53.326;6.472;2023-10-13T09:22:25;17.10;99.90
52016;DHT22;38032;53.326;6.472;2023-10-13T09:24:55;17.10;99.90
52016;DHT22;38032;53.326;6.472;2023-10-13T09:27:25;17.20;99.90
52016;DHT22;38032;53.326;6.472;2023-10-13T09:29:59;17.30;99.90
52016;DHT22;38032;53.326;6.472;2023-10-13T09:32:36;17.50;99.90
52016;DHT22;38032;53.326;6.472;2023-10-13T09:35:17;17.80;99.90
52016;DHT22;38032;53.326;6.472;2023-10-13T09:37:45;18.20;99.90
52016;DHT22;38032;53.326;6.472;2023-10-13T09:40:15;18.40;99.90
52016;DHT22;38032;53.326;6.472;2023-10-13T09:43:00;18.50;99.90
52016;DHT22;38032;53.326;6.472;2023-10-13T09:45:35;18.70;99.90
52016;DHT22;38032;53.326;6.472;2023-10-13T09:48:10;18.70;99.90
52016;DHT22;38032;53.326;6.472;2023-10-13T09:50:45;19.00;99.90
52016;DHT22;38032;53.326;6.472;2023-10-13T09:53:12;19.20;99.90
52016;DHT22;38032;53.326;6.472;2023-10-13T09:55:45;19.50;99.90
52016;DHT22;38032;53.326;6.472;2023-10-13T09:58:14;19.80;99.90
52016;DHT22;38032;53.326;6.472;2023-10-13T10:00:50;19.80;99.90
52016;DHT22;38032;53.326;6.472;2023-10-13T10:03:26;19.80;99.90
52016;DHT22;38032;53.326;6.472;2023-10-13T10:06:00;19.60;99.90
52016;DHT22;38032;53.326;6.472;2023-10-13T10:08:34;19.60;99.90
52016;DHT22;38032;53.326;6.472;2023-10-13T10:11:16;19.50;99.90
52016;DHT22;38032;53.326;6.472;2023-10-13T10:14:07;19.40;99.90
52016;DHT22;38032;53.326;6.472;2023-10-13T10:17:04;19.30;99.90
52016;DHT22;38032;53.326;6.472;2023-10-13T10:19:33;19.30;99.90
52016;DHT22;38032;53.326;6.472;2023-10-13T10:22:03;19.30;99.90
52016;DHT22;38032;53.326;6.472;2023-10-13T10:24:36;19.30;99.90
52016;DHT22;38032;53.326;6.472;2023-10-13T10:27:04;19.20;99.90
52016;DHT22;38032;53.326;6.472;2023-10-13T10:29:30;19.20;99.90
52016;DHT22;38032;53.326;6.472;2023-10-13T10:31:58;19.20;99.90
52016;DHT22;38032;53.326;6.472;2023-10-13T10:34:30;19.20;99.90
52016;DHT22;38032;53.326;6.472;2023-10-13T10:36:58;19.20;99.90
52016;DHT22;38032;53.326;6.472;2023-10-13T10:39:37;19.20;99.90
52016;DHT22;38032;53.326;6.472;2023-10-13T10:42:12;19.30;99.90
52016;DHT22;38032;53.326;6.472;2023-10-13T10:44:50;19.50;99.90
52016;DHT22;38032;53.326;6.472;2023-10-13T10:47:22;19.80;99.90
52016;DHT22;38032;53.326;6.472;2023-10-13T10:49:58;20.00;99.90
52016;DHT22;38032;53.326;6.472;2023-10-13T10:52:27;20.10;99.90
52016;DHT22;38032;53.326;6.472;2023-10-13T10:54:59;20.20;99.90
52016;DHT22;38032;53.326;6.472;2023-10-13T10:57:25;20.20;99.90
52016;DHT22;38032;53.326;6.472;2023-10-13T10:59:55;20.20;99.90
52016;DHT22;38032;53.326;6.472;2023-10-13T11:02:37;20.20;99.90
52016;DHT22;38032;53.326;6.472;2023-10-13T11:05:03;20.20;99.90
52016;DHT22;38032;53.326;6.472;2023-10-13T11:07:32;20.30;99.90
52016;DHT22;38032;53.326;6.472;2023-10-13T11:10:08;20.30;99.90
52016;DHT22;38032;53.326;6.472;2023-10-13T11:12:37;20.40;99.90
52016;DHT22;38032;53.326;6.472;2023-10-13T11:15:07;20.60;99.90
52016;DHT22;38032;53.326;6.472;2023-10-13T11:17:49;20.90;99.90
52016;DHT22;38032;53.326;6.472;2023-10-13T11:20:22;21.10;99.90
52016;DHT22;38032;53.326;6.472;2023-10-13T11:22:59;21.10;99.90
52016;DHT22;38032;53.326;6.472;2023-10-13T11:25:27;21.00;99.90
52016;DHT22;38032;53.326;6.472;2023-10-13T11:28:11;21.00;99.90
52016;DHT22;38032;53.326;6.472;2023-10-13T11:30:44;20.90;99.90
52016;DHT22;38032;53.326;6.472;2023-10-13T11:33:15;20.70;99.90
52016;DHT22;38032;53.326;6.472;2023-10-13T11:35:55;20.60;99.90
52016;DHT22;38032;53.326;6.472;2023-10-13T11:38:22;20.60;99.90
52016;DHT22;38032;53.326;6.472;2023-10-13T11:43:30;20.60;99.90
52016;DHT22;38032;53.326;6.472;2023-10-13T11:46:01;20.60;99.90
52016;DHT22;38032;53.326;6.472;2023-10-13T11:48:34;20.60;99.90
52016;DHT22;38032;53.326;6.472;2023-10-13T11:51:03;20.50;99.90
52016;DHT22;38032;53.326;6.472;2023-10-13T11:53:44;20.50;99.90
52016;DHT22;38032;53.326;6.472;2023-10-13T11:56:10;20.40;99.90
52016;DHT22;38032;53.326;6.472;2023-10-13T11:58:37;20.40;99.90
52016;DHT22;38032;53.326;6.472;2023-10-13T12:01:03;20.30;99.90
52016;DHT22;38032;53.326;6.472;2023-10-13T12:03:37;20.30;99.90
52016;DHT22;38032;53.326;6.472;2023-10-13T12:06:21;20.20;99.90
52016;DHT22;38032;53.326;6.472;2023-10-13T12:09:12;20.10;99.90
52016;DHT22;38032;53.326;6.472;2023-10-13T12:11:59;19.90;99.90
52016;DHT22;38032;53.326;6.472;2023-10-13T12:14:27;19.90;99.90
52016;DHT22;38032;53.326;6.472;2023-10-13T12:16:55;19.70;99.90
52016;DHT22;38032;53.326;6.472;2023-10-13T12:19:23;19.70;99.90
52016;DHT22;38032;53.326;6.472;2023-10-13T12:21:50;19.60;99.90
52016;DHT22;38032;53.326;6.472;2023-10-13T12:24:22;19.60;99.90
52016;DHT22;38032;53.326;6.472;2023-10-13T12:26:57;19.50;99.90
52016;DHT22;38032;53.326;6.472;2023-10-13T12:29:24;19.60;99.90
52016;DHT22;38032;53.326;6.472;2023-10-13T12:31:54;19.50;99.90
52016;DHT22;38032;53.326;6.472;2023-10-13T12:34:35;19.50;99.90
52016;DHT22;38032;53.326;6.472;2023-10-13T12:37:20;19.50;99.90
52016;DHT22;38032;53.326;6.472;2023-10-13T12:40:05;19.30;99.90
52016;DHT22;38032;53.326;6.472;2023-10-13T12:42:51;19.20;99.90
52016;DHT22;38032;53.326;6.472;2023-10-13T12:45:40;19.20;99.90
52016;DHT22;38032;53.326;6.472;2023-10-13T12:48:24;19.00;99.90
52016;DHT22;38032;53.326;6.472;2023-10-13T12:51:08;19.00;99.90
52016;DHT22;38032;53.326;6.472;2023-10-13T12:53:51;18.90;99.90
52016;DHT22;38032;53.326;6.472;2023-10-13T12:56:18;18.90;99.90
52016;DHT22;38032;53.326;6.472;2023-10-13T12:58:52;18.90;99.90
52016;DHT22;38032;53.326;6.472;2023-10-13T13:01:20;18.80;99.90
52016;DHT22;38032;53.326;6.472;2023-10-13T13:03:47;18.80;99.90
52016;DHT22;38032;53.326;6.472;2023-10-13T13:06:19;18.80;99.90
52016;DHT22;38032;53.326;6.472;2023-10-13T13:08:57;18.70;99.90
52016;DHT22;38032;53.326;6.472;2023-10-13T13:11:24;18.70;99.90
52016;DHT22;38032;53.326;6.472;2023-10-13T13:13:50;18.70;99.90
52016;DHT22;38032;53.326;6.472;2023-10-13T13:16:18;18.60;99.90
52016;DHT22;38032;53.326;6.472;2023-10-13T13:18:45;18.70;99.90
52016;DHT22;38032;53.326;6.472;2023-10-13T13:21:11;18.60;99.90
52016;DHT22;38032;53.326;6.472;2023-10-13T13:23:40;18.60;99.90
52016;DHT22;38032;53.326;6.472;2023-10-13T13:26:06;18.60;99.90
52016;DHT22;38032;53.326;6.472;2023-10-13T13:28:42;18.50;99.90
52016;DHT22;38032;53.326;6.472;2023-10-13T13:31:08;18.50;99.90
52016;DHT22;38032;53.326;6.472;2023-10-13T13:33:35;18.50;99.90
52016;DHT22;38032;53.326;6.472;2023-10-13T13:36:05;18.50;99.90
52016;DHT22;38032;53.326;6.472;2023-10-13T13:38:31;18.50;99.90
52016;DHT22;38032;53.326;6.472;2023-10-13T13:40:59;18.50;99.90
52016;DHT22;38032;53.326;6.472;2023-10-13T13:43:27;18.50;99.90
52016;DHT22;38032;53.326;6.472;2023-10-13T13:46:16;18.40;99.90
52016;DHT22;38032;53.326;6.472;2023-10-13T13:48:43;18.40;99.90
52016;DHT22;38032;53.326;6.472;2023-10-13T13:51:13;18.40;99.90
52016;DHT22;38032;53.326;6.472;2023-10-13T13:53:41;18.40;99.90
52016;DHT22;38032;53.326;6.472;2023-10-13T13:56:11;18.40;99.90
52016;DHT22;38032;53.326;6.472;2023-10-13T13:58:42;18.40;99.90
52016;DHT22;38032;53.326;6.472;2023-10-13T14:01:08;18.40;99.90
52016;DHT22;38032;53.326;6.472;2023-10-13T14:03:44;18.40;99.90
52016;DHT22;38032;53.326;6.472;2023-10-13T14:06:12;18.40;99.90
52016;DHT22;38032;53.326;6.472;2023-10-13T14:08:47;18.40;99.90
52016;DHT22;38032;53.326;6.472;2023-10-13T14:11:15;18.40;99.90
52016;DHT22;38032;53.326;6.472;2023-10-13T14:14:13;18.40;99.90
52016;DHT22;38032;53.326;6.472;2023-10-13T14:16:54;18.40;99.90
52016;DHT22;38032;53.326;6.472;2023-10-13T14:19:28;18.50;99.90
52016;DHT22;38032;53.326;6.472;2023-10-13T14:21:55;18.50;99.90
52016;DHT22;38032;53.326;6.472;2023-10-13T14:24:22;18.50;99.90
52016;DHT22;38032;53.326;6.472;2023-10-13T14:27:01;18.50;99.90
52016;DHT22;38032;53.326;6.472;2023-10-13T14:29:35;18.50;99.90
52016;DHT22;38032;53.326;6.472;2023-10-13T14:32:09;18.50;99.90
52016;DHT22;38032;53.326;6.472;2023-10-13T14:34:41;18.50;99.90
52016;DHT22;38032;53.326;6.472;2023-10-13T14:37:08;18.50;99.90
52016;DHT22;38032;53.326;6.472;2023-10-13T14:39:34;18.50;99.90
52016;DHT22;38032;53.326;6.472;2023-10-13T14:42:02;18.50;99.90
52016;DHT22;38032;53.326;6.472;2023-10-13T14:44:32;18.60;99.90
52016;DHT22;38032;53.326;6.472;2023-10-13T14:46:59;18.60;99.90
52016;DHT22;38032;53.326;6.472;2023-10-13T14:49:26;18.60;99.90
52016;DHT22;38032;53.326;6.472;2023-10-13T14:51:52;18.60;99.90
52016;DHT22;38032;53.326;6.472;2023-10-13T14:54:21;18.60;99.90
52016;DHT22;38032;53.326;6.472;2023-10-13T14:57:02;18.60;99.90
52016;DHT22;38032;53.326;6.472;2023-10-13T14:59:29;18.60;99.90
52016;DHT22;38032;53.326;6.472;2023-10-13T15:02:00;18.60;99.90
52016;DHT22;38032;53.326;6.472;2023-10-13T15:04:27;18.60;99.90
52016;DHT22;38032;53.326;6.472;2023-10-13T15:06:54;18.60;99.90
52016;DHT22;38032;53.326;6.472;2023-10-13T15:09:21;18.60;99.90
52016;DHT22;38032;53.326;6.472;2023-10-13T15:11:50;18.60;99.90
52016;DHT22;38032;53.326;6.472;2023-10-13T15:14:19;18.70;99.90
52016;DHT22;38032;53.326;6.472;2023-10-13T15:16:49;18.60;99.90
52016;DHT22;38032;53.326;6.472;2023-10-13T15:19:15;18.60;99.90
52016;DHT22;38032;53.326;6.472;2023-10-13T15:21:42;18.70;99.90
52016;DHT22;38032;53.326;6.472;2023-10-13T15:24:13;18.70;99.90
52016;DHT22;38032;53.326;6.472;2023-10-13T15:26:40;18.70;99.90
52016;DHT22;38032;53.326;6.472;2023-10-13T15:29:11;18.70;99.90
52016;DHT22;38032;53.326;6.472;2023-10-13T15:31:41;18.70;99.90
52016;DHT22;38032;53.326;6.472;2023-10-13T15:34:13;18.70;99.90
52016;DHT22;38032;53.326;6.472;2023-10-13T15:36:40;18.60;99.90
52016;DHT22;38032;53.326;6.472;2023-10-13T15:39:07;18.60;99.90
52016;DHT22;38032;53.326;6.472;2023-10-13T15:41:34;18.60;99.90
52016;DHT22;38032;53.326;6.472;2023-10-13T15:44:01;18.60;99.90
52016;DHT22;38032;53.326;6.472;2023-10-13T15:46:27;18.60;99.90
52016;DHT22;38032;53.326;6.472;2023-10-13T15:48:53;18.60;99.90
52016;DHT22;38032;53.326;6.472;2023-10-13T15:51:19;18.60;99.90
52016;DHT22;38032;53.326;6.472;2023-10-13T15:53:45;18.60;99.90
52016;DHT22;38032;53.326;6.472;2023-10-13T15:56:15;18.60;99.90
52016;DHT22;38032;53.326;6.472;2023-10-13T15:58:41;18.60;99.90
52016;DHT22;38032;53.326;6.472;2023-10-13T16:01:13;18.60;99.90
52016;DHT22;38032;53.326;6.472;2023-10-13T16:03:40;18.60;99.90
52016;DHT22;38032;53.326;6.472;2023-10-13T16:06:08;18.60;99.90
52016;DHT22;38032;53.326;6.472;2023-10-13T16:08:37;18.60;99.90
52016;DHT22;38032;53.326;6.472;2023-10-13T16:11:05;18.60;99.90
52016;DHT22;38032;53.326;6.472;2023-10-13T16:13:39;18.60;99.90
52016;DHT22;38032;53.326;6.472;2023-10-13T16:16:05;18.60;99.90
52016;DHT22;38032;53.326;6.472;2023-10-13T16:18:32;18.60;99.90
52016;DHT22;38032;53.326;6.472;2023-10-13T16:20:59;18.60;99.90